sensor_id;sensor_type;location;lat;lon;timestamp;temperature;humidity
13251;DHT22;6692;50.710;7.180;2023-12-07T00:00:57;3.20;99.90
13251;DHT22;6692;50.710;7.180;2023-12-07T00:02:57;3.20;99.90
13251;DHT22;6692;50.710;7.180;2023-12-07T00:04:59;3.20;99.90
13251;DHT22;6692;50.710;7.180;2023-12-07T00:06:59;3.20;99.90
13251;DHT22;6692;50.710;7.180;2023-12-07T00:09:01;3.20;99.90
13251;DHT22;6692;50.710;7.180;2023-12-07T00:11:02;3.20;99.90
13251;DHT22;6692;50.710;7.180;2023-12-07T00:13:02;3.20;99.90
13251;DHT22;6692;50.710;7.180;2023-12-07T00:15:04;3.20;99.90
13251;DHT22;6692;50.710;7.180;2023-12-07T00:17:05;3.30;99.90
13251;DHT22;6692;50.710;7.180;2023-12-07T00:19:06;3.30;99.90
13251;DHT22;6692;50.710;7.180;2023-12-07T00:21:08;3.30;99.90
13251;DHT22;6692;50.710;7.180;2023-12-07T00:23:09;3.30;99.90
13251;DHT22;6692;50.710;7.180;2023-12-07T00:25:10;3.30;99.90
13251;DHT22;6692;50.710;7.180;2023-12-07T00:27:11;3.30;99.90
13251;DHT22;6692;50.710;7.180;2023-12-07T00:29:12;3.30;99.90
13251;DHT22;6692;50.710;7.180;2023-12-07T00:31:13;3.30;99.90
13251;DHT22;6692;50.710;7.180;2023-12-07T00:33:15;3.30;99.90
13251;DHT22;6692;50.710;7.180;2023-12-07T00:35:16;3.40;99.90
13251;DHT22;6692;50.710;7.180;2023-12-07T00:37:17;3.40;99.90
13251;DHT22;6692;50.710;7.180;2023-12-07T00:39:18;3.40;99.90
13251;DHT22;6692;50.710;7.180;2023-12-07T00:41:18;3.40;99.90
13251;DHT22;6692;50.710;7.180;2023-12-07T00:43:19;3.50;99.90
13251;DHT22;6692;50.710;7.180;2023-12-07T00:45:20;3.50;99.90
13251;DHT22;6692;50.710;7.180;2023-12-07T00:47:20;3.50;99.90
13251;DHT22;6692;50.710;7.180;2023-12-07T00:49:21;3.50;99.90
13251;DHT22;6692;50.710;7.180;2023-12-07T00:51:22;3.60;99.90
13251;DHT22;6692;50.710;7.180;2023-12-07T00:53:22;3.60;99.90
13251;DHT22;6692;50.710;7.180;2023-12-07T00:55:23;3.70;99.90
13251;DHT22;6692;50.710;7.180;2023-12-07T00:57:24;3.70;99.90
13251;DHT22;6692;50.710;7.180;2023-12-07T00:59:25;3.70;99.90
13251;DHT22;6692;50.710;7.180;2023-12-07T01:01:27;3.70;99.90
13251;DHT22;6692;50.710;7.180;2023-12-07T01:03:27;3.80;99.90
13251;DHT22;6692;50.710;7.180;2023-12-07T01:05:28;3.80;99.90
13251;DHT22;6692;50.710;7.180;2023-12-07T01:07:29;3.90;99.90
13251;DHT22;6692;50.710;7.180;2023-12-07T01:09:30;3.90;99.90
13251;DHT22;6692;50.710;7.180;2023-12-07T01:11:31;3.90;99.90
13251;DHT22;6692;50.710;7.180;2023-12-07T01:13:32;3.90;99.90
13251;DHT22;6692;50.710;7.180;2023-12-07T01:15:33;3.90;99.90
13251;DHT22;6692;50.710;7.180;2023-12-07T01:17:33;3.90;99.90
13251;DHT22;6692;50.710;7.180;2023-12-07T01:19:34;3.90;99.90
13251;DHT22;6692;50.710;7.180;2023-12-07T01:21:35;4.00;99.90
13251;DHT22;6692;50.710;7.180;2023-12-07T01:23:36;4.00;99.90
13251;DHT22;6692;50.710;7.180;2023-12-07T01:25:37;4.00;99.90
13251;DHT22;6692;50.710;7.180;2023-12-07T01:27:37;4.00;99.90
13251;DHT22;6692;50.710;7.180;2023-12-07T01:29:38;4.10;99.90
13251;DHT22;6692;50.710;7.180;2023-12-07T01:31:39;4.10;99.90
13251;DHT22;6692;50.710;7.180;2023-12-07T01:33:40;4.10;99.90
13251;DHT22;6692;50.710;7.180;2023-12-07T01:35:41;4.10;99.90
13251;DHT22;6692;50.710;7.180;2023-12-07T01:37:42;4.10;99.90
13251;DHT22;6692;50.710;7.180;2023-12-07T01:39:43;4.10;99.90
13251;DHT22;6692;50.710;7.180;2023-12-07T01:41:44;4.10;99.90
13251;DHT22;6692;50.710;7.180;2023-12-07T01:43:45;4.20;99.90
13251;DHT22;6692;50.710;7.180;2023-12-07T01:45:46;4.20;99.90
13251;DHT22;6692;50.710;7.180;2023-12-07T01:47:47;4.20;99.90
13251;DHT22;6692;50.710;7.180;2023-12-07T01:49:47;4.30;99.90
13251;DHT22;6692;50.710;7.180;2023-12-07T01:51:48;4.30;99.90
13251;DHT22;6692;50.710;7.180;2023-12-07T01:53:49;4.30;99.90
13251;DHT22;6692;50.710;7.180;2023-12-07T01:55:50;4.30;99.90
13251;DHT22;6692;50.710;7.180;2023-12-07T01:57:50;4.30;99.90
13251;DHT22;6692;50.710;7.180;2023-12-07T01:59:51;4.30;99.90
13251;DHT22;6692;50.710;7.180;2023-12-07T02:01:52;4.30;99.90
13251;DHT22;6692;50.710;7.180;2023-12-07T02:03:52;4.30;99.90
13251;DHT22;6692;50.710;7.180;2023-12-07T02:05:54;4.30;99.90
13251;DHT22;6692;50.710;7.180;2023-12-07T02:07:54;4.30;99.90
13251;DHT22;6692;50.710;7.180;2023-12-07T02:09:55;4.30;99.90
13251;DHT22;6692;50.710;7.180;2023-12-07T02:11:56;4.40;99.90
13251;DHT22;6692;50.710;7.180;2023-12-07T02:13:57;4.40;99.90
13251;DHT22;6692;50.710;7.180;2023-12-07T02:15:59;4.40;99.90
13251;DHT22;6692;50.710;7.180;2023-12-07T02:18:10;4.40;99.90
13251;DHT22;6692;50.710;7.180;2023-12-07T02:20:28;4.40;99.90
13251;DHT22;6692;50.710;7.180;2023-12-07T02:22:29;4.40;99.90
13251;DHT22;6692;50.710;7.180;2023-12-07T02:24:28;4.40;99.90
13251;DHT22;6692;50.710;7.180;2023-12-07T02:26:31;4.40;99.90
13251;DHT22;6692;50.710;7.180;2023-12-07T02:28:30;4.40;99.90
13251;DHT22;6692;50.710;7.180;2023-12-07T02:30:31;4.40;99.90
13251;DHT22;6692;50.710;7.180;2023-12-07T02:32:32;4.40;99.90
13251;DHT22;6692;50.710;7.180;2023-12-07T02:34:32;4.40;99.90
13251;DHT22;6692;50.710;7.180;2023-12-07T02:36:33;4.40;99.90
13251;DHT22;6692;50.710;7.180;2023-12-07T02:38:34;4.30;99.90
13251;DHT22;6692;50.710;7.180;2023-12-07T02:40:35;4.20;99.90
13251;DHT22;6692;50.710;7.180;2023-12-07T02:42:38;4.20;99.90
13251;DHT22;6692;50.710;7.180;2023-12-07T02:44:39;4.20;99.90
13251;DHT22;6692;50.710;7.180;2023-12-07T02:46:40;4.10;99.90
13251;DHT22;6692;50.710;7.180;2023-12-07T02:48:40;4.10;99.90
13251;DHT22;6692;50.710;7.180;2023-12-07T02:50:42;4.10;99.90
13251;DHT22;6692;50.710;7.180;2023-12-07T02:52:42;4.10;99.90
13251;DHT22;6692;50.710;7.180;2023-12-07T02:54:43;4.10;99.90
13251;DHT22;6692;50.710;7.180;2023-12-07T02:56:44;4.10;99.90
13251;DHT22;6692;50.710;7.180;2023-12-07T02:58:45;4.10;99.90
13251;DHT22;6692;50.710;7.180;2023-12-07T03:00:45;4.10;99.90
13251;DHT22;6692;50.710;7.180;2023-12-07T03:02:47;4.20;99.90
13251;DHT22;6692;50.710;7.180;2023-12-07T03:04:47;4.20;99.90
13251;DHT22;6692;50.710;7.180;2023-12-07T03:06:49;4.20;99.90
13251;DHT22;6692;50.710;7.180;2023-12-07T03:08:49;4.20;99.90
13251;DHT22;6692;50.710;7.180;2023-12-07T03:10:50;4.20;99.90
13251;DHT22;6692;50.710;7.180;2023-12-07T03:12:51;4.20;99.90
13251;DHT22;6692;50.710;7.180;2023-12-07T03:14:51;4.30;99.90
13251;DHT22;6692;50.710;7.180;2023-12-07T03:16:53;4.20;99.90
13251;DHT22;6692;50.710;7.180;2023-12-07T03:18:54;4.20;99.90
13251;DHT22;6692;50.710;7.180;2023-12-07T03:20:54;4.20;99.90
13251;DHT22;6692;50.710;7.180;2023-12-07T03:22:56;4.20;99.90
13251;DHT22;6692;50.710;7.180;2023-12-07T03:24:56;4.20;99.90
13251;DHT22;6692;50.710;7.180;2023-12-07T03:26:57;4.10;99.90
13251;DHT22;6692;50.710;7.180;2023-12-07T03:28:58;4.10;99.90
13251;DHT22;6692;50.710;7.180;2023-12-07T03:30:58;4.10;99.90
13251;DHT22;6692;50.710;7.180;2023-12-07T03:32:59;4.10;99.90
13251;DHT22;6692;50.710;7.180;2023-12-07T03:35:00;4.10;99.90
13251;DHT22;6692;50.710;7.180;2023-12-07T03:37:00;4.10;99.90
13251;DHT22;6692;50.710;7.180;2023-12-07T03:39:01;4.10;99.90
13251;DHT22;6692;50.710;7.180;2023-12-07T03:41:03;4.20;99.90
13251;DHT22;6692;50.710;7.180;2023-12-07T03:43:03;4.10;99.90
13251;DHT22;6692;50.710;7.180;2023-12-07T03:45:05;4.20;99.90
13251;DHT22;6692;50.710;7.180;2023-12-07T03:47:06;4.20;99.90
13251;DHT22;6692;50.710;7.180;2023-12-07T03:49:06;4.20;99.90
13251;DHT22;6692;50.710;7.180;2023-12-07T03:51:07;4.20;99.90
13251;DHT22;6692;50.710;7.180;2023-12-07T03:53:08;4.20;99.90
13251;DHT22;6692;50.710;7.180;2023-12-07T03:55:09;4.20;99.90
13251;DHT22;6692;50.710;7.180;2023-12-07T03:57:11;4.20;99.90
13251;DHT22;6692;50.710;7.180;2023-12-07T03:59:11;4.20;99.90
13251;DHT22;6692;50.710;7.180;2023-12-07T04:01:12;4.20;99.90
13251;DHT22;6692;50.710;7.180;2023-12-07T04:03:13;4.20;99.90
13251;DHT22;6692;50.710;7.180;2023-12-07T04:05:13;4.30;99.90
13251;DHT22;6692;50.710;7.180;2023-12-07T04:07:14;4.30;99.90
13251;DHT22;6692;50.710;7.180;2023-12-07T04:09:15;4.20;99.90
13251;DHT22;6692;50.710;7.180;2023-12-07T04:11:16;4.30;99.90
13251;DHT22;6692;50.710;7.180;2023-12-07T04:13:16;4.20;99.90
13251;DHT22;6692;50.710;7.180;2023-12-07T04:15:19;4.20;99.90
13251;DHT22;6692;50.710;7.180;2023-12-07T04:17:19;4.20;99.90
13251;DHT22;6692;50.710;7.180;2023-12-07T04:19:21;4.20;99.90
13251;DHT22;6692;50.710;7.180;2023-12-07T04:21:21;4.20;99.90
13251;DHT22;6692;50.710;7.180;2023-12-07T04:23:23;4.20;99.90
13251;DHT22;6692;50.710;7.180;2023-12-07T04:25:24;4.20;99.90
13251;DHT22;6692;50.710;7.180;2023-12-07T04:27:24;4.20;99.90
13251;DHT22;6692;50.710;7.180;2023-12-07T04:29:25;4.20;99.90
13251;DHT22;6692;50.710;7.180;2023-12-07T04:31:26;4.20;99.90
13251;DHT22;6692;50.710;7.180;2023-12-07T04:33:26;4.20;99.90
13251;DHT22;6692;50.710;7.180;2023-12-07T04:35:27;4.20;99.90
13251;DHT22;6692;50.710;7.180;2023-12-07T04:37:28;4.10;99.90
13251;DHT22;6692;50.710;7.180;2023-12-07T04:39:28;4.10;99.90
13251;DHT22;6692;50.710;7.180;2023-12-07T04:41:29;4.00;99.90
13251;DHT22;6692;50.710;7.180;2023-12-07T04:43:30;3.90;99.90
13251;DHT22;6692;50.710;7.180;2023-12-07T04:45:31;3.90;99.90
13251;DHT22;6692;50.710;7.180;2023-12-07T04:47:32;3.80;99.90
13251;DHT22;6692;50.710;7.180;2023-12-07T04:49:33;3.70;99.90
13251;DHT22;6692;50.710;7.180;2023-12-07T04:51:35;3.60;99.90
13251;DHT22;6692;50.710;7.180;2023-12-07T04:53:35;3.60;99.90
13251;DHT22;6692;50.710;7.180;2023-12-07T04:55:36;3.50;99.90
13251;DHT22;6692;50.710;7.180;2023-12-07T04:57:37;3.40;99.90
13251;DHT22;6692;50.710;7.180;2023-12-07T04:59:38;3.30;99.90
13251;DHT22;6692;50.710;7.180;2023-12-07T05:01:39;3.30;99.90
13251;DHT22;6692;50.710;7.180;2023-12-07T05:03:39;3.20;99.90
13251;DHT22;6692;50.710;7.180;2023-12-07T05:05:41;3.10;99.90
13251;DHT22;6692;50.710;7.180;2023-12-07T05:07:41;3.10;99.90
13251;DHT22;6692;50.710;7.180;2023-12-07T05:09:42;3.00;99.90
13251;DHT22;6692;50.710;7.180;2023-12-07T05:11:43;2.90;99.90
13251;DHT22;6692;50.710;7.180;2023-12-07T05:13:44;2.90;99.90
13251;DHT22;6692;50.710;7.180;2023-12-07T05:15:45;2.80;99.90
13251;DHT22;6692;50.710;7.180;2023-12-07T05:17:46;2.80;99.90
13251;DHT22;6692;50.710;7.180;2023-12-07T05:19:46;2.80;99.90
13251;DHT22;6692;50.710;7.180;2023-12-07T05:21:47;2.70;99.90
13251;DHT22;6692;50.710;7.180;2023-12-07T05:23:48;2.70;99.90
13251;DHT22;6692;50.710;7.180;2023-12-07T05:25:48;2.70;99.90
13251;DHT22;6692;50.710;7.180;2023-12-07T05:27:49;2.60;99.90
13251;DHT22;6692;50.710;7.180;2023-12-07T05:29:50;2.60;99.90
13251;DHT22;6692;50.710;7.180;2023-12-07T05:31:50;2.50;99.90
13251;DHT22;6692;50.710;7.180;2023-12-07T05:33:51;2.50;99.90
13251;DHT22;6692;50.710;7.180;2023-12-07T05:35:52;2.50;99.90
13251;DHT22;6692;50.710;7.180;2023-12-07T05:37:53;2.50;99.90
13251;DHT22;6692;50.710;7.180;2023-12-07T05:39:54;2.50;99.90
13251;DHT22;6692;50.710;7.180;2023-12-07T05:41:54;2.50;99.90
13251;DHT22;6692;50.710;7.180;2023-12-07T05:43:55;2.50;99.90
13251;DHT22;6692;50.710;7.180;2023-12-07T05:45:56;2.40;99.90
13251;DHT22;6692;50.710;7.180;2023-12-07T05:47:57;2.40;99.90
13251;DHT22;6692;50.710;7.180;2023-12-07T05:49:58;2.30;99.90
13251;DHT22;6692;50.710;7.180;2023-12-07T05:51:59;2.30;99.90
13251;DHT22;6692;50.710;7.180;2023-12-07T05:54:00;2.30;99.90
13251;DHT22;6692;50.710;7.180;2023-12-07T05:56:01;2.30;99.90
13251;DHT22;6692;50.710;7.180;2023-12-07T05:58:01;2.30;99.90
13251;DHT22;6692;50.710;7.180;2023-12-07T06:00:03;2.20;99.90
13251;DHT22;6692;50.710;7.180;2023-12-07T06:02:03;2.20;99.90
13251;DHT22;6692;50.710;7.180;2023-12-07T06:04:05;2.20;99.90
13251;DHT22;6692;50.710;7.180;2023-12-07T06:06:05;2.10;99.90
13251;DHT22;6692;50.710;7.180;2023-12-07T06:08:06;2.10;99.90
13251;DHT22;6692;50.710;7.180;2023-12-07T06:10:08;2.10;99.90
13251;DHT22;6692;50.710;7.180;2023-12-07T06:12:09;2.10;99.90
13251;DHT22;6692;50.710;7.180;2023-12-07T06:14:10;2.10;99.90
13251;DHT22;6692;50.710;7.180;2023-12-07T06:16:12;2.10;99.90
13251;DHT22;6692;50.710;7.180;2023-12-07T06:18:13;2.10;99.90
13251;DHT22;6692;50.710;7.180;2023-12-07T06:20:13;2.10;99.90
13251;DHT22;6692;50.710;7.180;2023-12-07T06:22:14;2.10;99.90
13251;DHT22;6692;50.710;7.180;2023-12-07T06:24:15;2.10;99.90
13251;DHT22;6692;50.710;7.180;2023-12-07T06:26:16;2.10;99.90
13251;DHT22;6692;50.710;7.180;2023-12-07T06:28:17;2.10;99.90
13251;DHT22;6692;50.710;7.180;2023-12-07T06:30:18;2.00;99.90
13251;DHT22;6692;50.710;7.180;2023-12-07T06:32:19;2.00;99.90
13251;DHT22;6692;50.710;7.180;2023-12-07T06:34:20;2.10;99.90
13251;DHT22;6692;50.710;7.180;2023-12-07T06:36:22;2.00;99.90
13251;DHT22;6692;50.710;7.180;2023-12-07T06:38:22;2.00;99.90
13251;DHT22;6692;50.710;7.180;2023-12-07T06:40:23;2.00;99.90
13251;DHT22;6692;50.710;7.180;2023-12-07T06:42:23;2.00;99.90
13251;DHT22;6692;50.710;7.180;2023-12-07T06:44:25;2.00;99.90
13251;DHT22;6692;50.710;7.180;2023-12-07T06:46:26;2.00;99.90
13251;DHT22;6692;50.710;7.180;2023-12-07T06:48:27;2.00;99.90
13251;DHT22;6692;50.710;7.180;2023-12-07T06:50:28;2.00;99.90
13251;DHT22;6692;50.710;7.180;2023-12-07T06:52:28;2.00;99.90
13251;DHT22;6692;50.710;7.180;2023-12-07T06:54:29;2.00;99.90
13251;DHT22;6692;50.710;7.180;2023-12-07T06:56:30;2.00;99.90
13251;DHT22;6692;50.710;7.180;2023-12-07T06:58:30;2.00;99.90
13251;DHT22;6692;50.710;7.180;2023-12-07T07:00:31;2.00;99.90
13251;DHT22;6692;50.710;7.180;2023-12-07T07:02:32;1.90;99.90
13251;DHT22;6692;50.710;7.180;2023-12-07T07:04:33;1.90;99.90
13251;DHT22;6692;50.710;7.180;2023-12-07T07:06:34;1.90;99.90
13251;DHT22;6692;50.710;7.180;2023-12-07T07:08:34;1.90;99.90
13251;DHT22;6692;50.710;7.180;2023-12-07T07:10:36;2.00;99.90
13251;DHT22;6692;50.710;7.180;2023-12-07T07:12:36;1.90;99.90
13251;DHT22;6692;50.710;7.180;2023-12-07T07:14:37;1.90;99.90
13251;DHT22;6692;50.710;7.180;2023-12-07T07:16:38;2.00;99.90
13251;DHT22;6692;50.710;7.180;2023-12-07T07:18:39;2.00;99.90
13251;DHT22;6692;50.710;7.180;2023-12-07T07:20:40;1.90;99.90
13251;DHT22;6692;50.710;7.180;2023-12-07T07:22:41;2.00;99.90
13251;DHT22;6692;50.710;7.180;2023-12-07T07:24:42;2.00;99.90
13251;DHT22;6692;50.710;7.180;2023-12-07T07:26:43;2.00;99.90
13251;DHT22;6692;50.710;7.180;2023-12-07T07:28:43;2.00;99.90
13251;DHT22;6692;50.710;7.180;2023-12-07T07:30:44;2.00;99.90
13251;DHT22;6692;50.710;7.180;2023-12-07T07:32:45;2.10;99.90
13251;DHT22;6692;50.710;7.180;2023-12-07T07:34:45;2.00;99.90
13251;DHT22;6692;50.710;7.180;2023-12-07T07:36:46;2.10;99.90
13251;DHT22;6692;50.710;7.180;2023-12-07T07:38:47;2.10;99.90
13251;DHT22;6692;50.710;7.180;2023-12-07T07:40:48;2.10;99.90
13251;DHT22;6692;50.710;7.180;2023-12-07T07:42:48;2.10;99.90
13251;DHT22;6692;50.710;7.180;2023-12-07T07:44:49;2.10;99.90
13251;DHT22;6692;50.710;7.180;2023-12-07T07:46:50;2.10;99.90
13251;DHT22;6692;50.710;7.180;2023-12-07T07:48:51;2.10;99.90
13251;DHT22;6692;50.710;7.180;2023-12-07T07:50:52;2.10;99.90
13251;DHT22;6692;50.710;7.180;2023-12-07T07:52:54;2.10;99.90
13251;DHT22;6692;50.710;7.180;2023-12-07T07:54:54;2.10;99.90
13251;DHT22;6692;50.710;7.180;2023-12-07T07:56:55;2.10;99.90
13251;DHT22;6692;50.710;7.180;2023-12-07T07:58:55;2.20;99.90
13251;DHT22;6692;50.710;7.180;2023-12-07T08:00:57;2.20;99.90
13251;DHT22;6692;50.710;7.180;2023-12-07T08:02:58;2.20;99.90
13251;DHT22;6692;50.710;7.180;2023-12-07T08:04:59;2.10;99.90
13251;DHT22;6692;50.710;7.180;2023-12-07T08:07:00;2.20;99.90
13251;DHT22;6692;50.710;7.180;2023-12-07T08:09:00;2.20;99.90
13251;DHT22;6692;50.710;7.180;2023-12-07T08:11:01;2.20;99.90
13251;DHT22;6692;50.710;7.180;2023-12-07T08:13:02;2.20;99.90
13251;DHT22;6692;50.710;7.180;2023-12-07T08:15:03;2.20;99.90
13251;DHT22;6692;50.710;7.180;2023-12-07T08:17:11;2.20;99.90
13251;DHT22;6692;50.710;7.180;2023-12-07T08:19:11;2.20;99.90
13251;DHT22;6692;50.710;7.180;2023-12-07T08:21:18;2.20;99.90
13251;DHT22;6692;50.710;7.180;2023-12-07T08:23:19;2.20;99.90
13251;DHT22;6692;50.710;7.180;2023-12-07T08:25:20;2.20;99.90
13251;DHT22;6692;50.710;7.180;2023-12-07T08:27:21;2.20;99.90
13251;DHT22;6692;50.710;7.180;2023-12-07T08:29:22;2.10;99.90
13251;DHT22;6692;50.710;7.180;2023-12-07T08:31:23;2.20;99.90
13251;DHT22;6692;50.710;7.180;2023-12-07T08:33:23;2.20;99.90
13251;DHT22;6692;50.710;7.180;2023-12-07T08:35:25;2.20;99.90
13251;DHT22;6692;50.710;7.180;2023-12-07T08:37:26;2.20;99.90
13251;DHT22;6692;50.710;7.180;2023-12-07T08:39:27;2.20;99.90
13251;DHT22;6692;50.710;7.180;2023-12-07T08:41:28;2.30;99.90
13251;DHT22;6692;50.710;7.180;2023-12-07T08:43:28;2.30;99.90
13251;DHT22;6692;50.710;7.180;2023-12-07T08:45:29;2.30;99.90
13251;DHT22;6692;50.710;7.180;2023-12-07T08:47:30;2.30;99.90
13251;DHT22;6692;50.710;7.180;2023-12-07T08:49:31;2.30;99.90
13251;DHT22;6692;50.710;7.180;2023-12-07T08:51:32;2.30;99.90
13251;DHT22;6692;50.710;7.180;2023-12-07T08:53:33;2.30;99.90
13251;DHT22;6692;50.710;7.180;2023-12-07T08:55:33;2.40;99.90
13251;DHT22;6692;50.710;7.180;2023-12-07T08:57:34;2.40;99.90
13251;DHT22;6692;50.710;7.180;2023-12-07T08:59:35;2.40;99.90
13251;DHT22;6692;50.710;7.180;2023-12-07T09:01:36;2.40;99.90
13251;DHT22;6692;50.710;7.180;2023-12-07T09:03:37;2.40;99.90
13251;DHT22;6692;50.710;7.180;2023-12-07T09:05:37;2.40;99.90
13251;DHT22;6692;50.710;7.180;2023-12-07T09:07:38;2.40;99.90
13251;DHT22;6692;50.710;7.180;2023-12-07T09:09:39;2.40;99.90
13251;DHT22;6692;50.710;7.180;2023-12-07T09:11:40;2.40;99.90
13251;DHT22;6692;50.710;7.180;2023-12-07T09:13:41;2.40;99.90
13251;DHT22;6692;50.710;7.180;2023-12-07T09:15:42;2.40;99.90
13251;DHT22;6692;50.710;7.180;2023-12-07T09:17:43;2.40;99.90
13251;DHT22;6692;50.710;7.180;2023-12-07T09:19:44;2.40;99.90
13251;DHT22;6692;50.710;7.180;2023-12-07T09:21:45;2.40;99.90
13251;DHT22;6692;50.710;7.180;2023-12-07T09:23:46;2.40;99.90
13251;DHT22;6692;50.710;7.180;2023-12-07T09:25:46;2.50;99.90
13251;DHT22;6692;50.710;7.180;2023-12-07T09:27:47;2.50;99.90
13251;DHT22;6692;50.710;7.180;2023-12-07T09:29:48;2.50;99.90
13251;DHT22;6692;50.710;7.180;2023-12-07T09:31:48;2.50;99.90
13251;DHT22;6692;50.710;7.180;2023-12-07T09:33:49;2.50;99.90
13251;DHT22;6692;50.710;7.180;2023-12-07T09:35:51;2.50;99.90
13251;DHT22;6692;50.710;7.180;2023-12-07T09:37:51;2.50;99.90
13251;DHT22;6692;50.710;7.180;2023-12-07T09:39:52;2.50;99.90
13251;DHT22;6692;50.710;7.180;2023-12-07T09:41:53;2.50;99.90
13251;DHT22;6692;50.710;7.180;2023-12-07T09:43:53;2.50;99.90
13251;DHT22;6692;50.710;7.180;2023-12-07T09:45:54;2.60;99.90
13251;DHT22;6692;50.710;7.180;2023-12-07T09:47:55;2.50;99.90
13251;DHT22;6692;50.710;7.180;2023-12-07T09:49:55;2.50;99.90
13251;DHT22;6692;50.710;7.180;2023-12-07T09:51:58;2.60;99.90
13251;DHT22;6692;50.710;7.180;2023-12-07T09:53:57;2.60;99.90
13251;DHT22;6692;50.710;7.180;2023-12-07T09:55:58;2.60;99.90
13251;DHT22;6692;50.710;7.180;2023-12-07T09:57:59;2.60;99.90
13251;DHT22;6692;50.710;7.180;2023-12-07T10:00:00;2.70;99.90
13251;DHT22;6692;50.710;7.180;2023-12-07T10:02:00;2.70;99.90
13251;DHT22;6692;50.710;7.180;2023-12-07T10:06:14;2.70;99.90
13251;DHT22;6692;50.710;7.180;2023-12-07T10:08:17;2.70;99.90
13251;DHT22;6692;50.710;7.180;2023-12-07T10:10:16;2.70;99.90
13251;DHT22;6692;50.710;7.180;2023-12-07T10:12:21;2.70;99.90
13251;DHT22;6692;50.710;7.180;2023-12-07T10:14:21;2.70;99.90
13251;DHT22;6692;50.710;7.180;2023-12-07T10:16:23;2.80;99.90
13251;DHT22;6692;50.710;7.180;2023-12-07T10:18:23;2.80;99.90
13251;DHT22;6692;50.710;7.180;2023-12-07T10:20:25;2.90;99.90
13251;DHT22;6692;50.710;7.180;2023-12-07T10:22:25;2.90;99.90
13251;DHT22;6692;50.710;7.180;2023-12-07T10:24:26;2.90;99.90
13251;DHT22;6692;50.710;7.180;2023-12-07T10:26:26;2.90;99.90
13251;DHT22;6692;50.710;7.180;2023-12-07T10:28:27;3.00;99.90
13251;DHT22;6692;50.710;7.180;2023-12-07T10:30:28;3.10;99.90
13251;DHT22;6692;50.710;7.180;2023-12-07T10:32:29;3.10;99.90
13251;DHT22;6692;50.710;7.180;2023-12-07T10:34:30;3.10;99.90
13251;DHT22;6692;50.710;7.180;2023-12-07T10:36:31;3.10;99.90
13251;DHT22;6692;50.710;7.180;2023-12-07T10:38:31;3.10;99.90
13251;DHT22;6692;50.710;7.180;2023-12-07T10:40:32;3.10;99.90
13251;DHT22;6692;50.710;7.180;2023-12-07T10:42:33;3.10;99.90
13251;DHT22;6692;50.710;7.180;2023-12-07T10:44:33;3.10;99.90
13251;DHT22;6692;50.710;7.180;2023-12-07T10:46:34;3.10;99.90
13251;DHT22;6692;50.710;7.180;2023-12-07T10:48:35;3.10;99.90
13251;DHT22;6692;50.710;7.180;2023-12-07T10:50:36;3.10;99.90
13251;DHT22;6692;50.710;7.180;2023-12-07T10:52:39;3.20;99.90
13251;DHT22;6692;50.710;7.180;2023-12-07T10:55:15;3.20;99.90
13251;DHT22;6692;50.710;7.180;2023-12-07T10:56:57;3.30;99.90
13251;DHT22;6692;50.710;7.180;2023-12-07T10:58:58;3.20;99.90
13251;DHT22;6692;50.710;7.180;2023-12-07T11:00:59;3.30;99.90
13251;DHT22;6692;50.710;7.180;2023-12-07T11:03:00;3.30;99.90
13251;DHT22;6692;50.710;7.180;2023-12-07T11:05:01;3.30;99.90
13251;DHT22;6692;50.710;7.180;2023-12-07T11:07:03;3.40;99.90
13251;DHT22;6692;50.710;7.180;2023-12-07T11:09:04;3.40;99.90
13251;DHT22;6692;50.710;7.180;2023-12-07T11:13:13;3.50;99.90
13251;DHT22;6692;50.710;7.180;2023-12-07T11:15:12;3.50;99.90
13251;DHT22;6692;50.710;7.180;2023-12-07T11:17:12;3.60;99.90
13251;DHT22;6692;50.710;7.180;2023-12-07T11:21:26;3.60;99.90
13251;DHT22;6692;50.710;7.180;2023-12-07T11:23:27;3.60;99.90
13251;DHT22;6692;50.710;7.180;2023-12-07T11:25:27;3.60;99.90
13251;DHT22;6692;50.710;7.180;2023-12-07T11:27:29;3.60;99.90
13251;DHT22;6692;50.710;7.180;2023-12-07T11:29:30;3.60;99.90
13251;DHT22;6692;50.710;7.180;2023-12-07T11:31:30;3.60;99.90
13251;DHT22;6692;50.710;7.180;2023-12-07T11:33:31;3.60;99.90
13251;DHT22;6692;50.710;7.180;2023-12-07T11:35:32;3.60;99.90
13251;DHT22;6692;50.710;7.180;2023-12-07T11:39:45;3.60;99.90
13251;DHT22;6692;50.710;7.180;2023-12-07T11:41:49;3.60;99.90
13251;DHT22;6692;50.710;7.180;2023-12-07T11:43:47;3.60;99.90
13251;DHT22;6692;50.710;7.180;2023-12-07T11:45:48;3.60;99.90
13251;DHT22;6692;50.710;7.180;2023-12-07T11:48:05;3.70;99.90
13251;DHT22;6692;50.710;7.180;2023-12-07T11:49:50;3.60;99.90
13251;DHT22;6692;50.710;7.180;2023-12-07T11:51:51;3.70;99.90
13251;DHT22;6692;50.710;7.180;2023-12-07T11:53:52;3.70;99.90
13251;DHT22;6692;50.710;7.180;2023-12-07T11:55:52;3.70;99.90
13251;DHT22;6692;50.710;7.180;2023-12-07T11:57:53;3.70;99.90
13251;DHT22;6692;50.710;7.180;2023-12-07T11:59:54;3.70;99.90
13251;DHT22;6692;50.710;7.180;2023-12-07T12:01:55;3.80;99.90
13251;DHT22;6692;50.710;7.180;2023-12-07T12:03:56;3.70;99.90
13251;DHT22;6692;50.710;7.180;2023-12-07T12:05:56;3.80;99.90
13251;DHT22;6692;50.710;7.180;2023-12-07T12:07:57;3.80;99.90
13251;DHT22;6692;50.710;7.180;2023-12-07T12:09:59;3.80;99.90
13251;DHT22;6692;50.710;7.180;2023-12-07T12:11:59;3.80;99.90
13251;DHT22;6692;50.710;7.180;2023-12-07T12:14:01;3.80;99.90
13251;DHT22;6692;50.710;7.180;2023-12-07T12:16:02;3.80;99.90
13251;DHT22;6692;50.710;7.180;2023-12-07T12:18:03;3.90;99.90
13251;DHT22;6692;50.710;7.180;2023-12-07T12:20:04;3.80;99.90
13251;DHT22;6692;50.710;7.180;2023-12-07T12:22:05;3.90;99.90
13251;DHT22;6692;50.710;7.180;2023-12-07T12:24:05;3.90;99.90
13251;DHT22;6692;50.710;7.180;2023-12-07T12:26:07;3.90;99.90
13251;DHT22;6692;50.710;7.180;2023-12-07T12:28:07;3.90;99.90
13251;DHT22;6692;50.710;7.180;2023-12-07T12:30:08;4.00;99.90
13251;DHT22;6692;50.710;7.180;2023-12-07T12:32:09;4.00;99.90
13251;DHT22;6692;50.710;7.180;2023-12-07T12:34:10;4.00;99.90
13251;DHT22;6692;50.710;7.180;2023-12-07T12:36:11;4.00;99.90
13251;DHT22;6692;50.710;7.180;2023-12-07T12:38:12;4.00;99.90
13251;DHT22;6692;50.710;7.180;2023-12-07T12:40:15;4.00;99.90
13251;DHT22;6692;50.710;7.180;2023-12-07T12:42:17;4.10;99.90
13251;DHT22;6692;50.710;7.180;2023-12-07T12:44:18;4.10;99.90
13251;DHT22;6692;50.710;7.180;2023-12-07T12:46:18;4.10;99.90
13251;DHT22;6692;50.710;7.180;2023-12-07T12:48:19;4.10;99.90
13251;DHT22;6692;50.710;7.180;2023-12-07T12:52:34;4.10;99.90
13251;DHT22;6692;50.710;7.180;2023-12-07T12:54:34;4.10;99.90
13251;DHT22;6692;50.710;7.180;2023-12-07T12:56:35;4.10;99.90
13251;DHT22;6692;50.710;7.180;2023-12-07T12:58:36;4.10;99.90
13251;DHT22;6692;50.710;7.180;2023-12-07T13:00:38;4.10;99.90
13251;DHT22;6692;50.710;7.180;2023-12-07T13:02:38;4.10;99.90
13251;DHT22;6692;50.710;7.180;2023-12-07T13:04:39;4.10;99.90
13251;DHT22;6692;50.710;7.180;2023-12-07T13:06:39;4.10;99.90
13251;DHT22;6692;50.710;7.180;2023-12-07T13:08:41;4.10;99.90
13251;DHT22;6692;50.710;7.180;2023-12-07T13:10:41;4.10;99.90
13251;DHT22;6692;50.710;7.180;2023-12-07T13:12:42;4.10;99.90
13251;DHT22;6692;50.710;7.180;2023-12-07T13:14:43;4.10;99.90
13251;DHT22;6692;50.710;7.180;2023-12-07T13:16:43;4.10;99.90
13251;DHT22;6692;50.710;7.180;2023-12-07T13:18:45;4.10;99.90
13251;DHT22;6692;50.710;7.180;2023-12-07T13:20:46;4.10;99.90